Astana, Kazakhstan

10:00 AM +06 on July 25, 2016 (GMT +0600)
Astana | | Change Station

Elev 1165 ft 51.02 °N, 71.47 °E | Updated 30 minutes ago

Mist
Mist
66 °F
Feels Like 66 °F
N
4
Wind Variable Wind from North

Today
High -- | Low -- °F
--% Chance of Precip.
Yesterday
High -- | Low -- °F
Precip. -- in
Pressure 29.65 in
Visibility -9999.0 miles
Clouds
Dew Point 63 °F
Humidity 88%
Rainfall 0.00 in
Snow Depth Not available.
5:29 AM 9:11 PM
Waning Gibbous, 70% visible
METAR UACC 250330Z 35002MPS 3700 BR NSC 19/17 Q1004 R22/2/0060 TEMPO 2000 BR RMK QFE722/0963
Pressure 29.65 in
Visibility -9999.0 miles
Clouds
Dew Point 63 °F
Humidity 88%
Rainfall 0.00 in
Snow Depth Not available.
5:29 AM 9:11 PM
Waning Gibbous, 70% visible
METAR UACC 250330Z 35002MPS 3700 BR NSC 19/17 Q1004 R22/2/0060 TEMPO 2000 BR RMK QFE722/0963

10-Day Weather Forecast

×

Almanac

Astronomy

Jul. 25, 2016 Rise Set
Actual Time
Civil Twilight
Nautical Twilight
Astronomical Twilight
Moon
Length of Visible Light
Length of Day
Tomorrow will be .
, % of the Moon is Illuminated

Today's Extremes

Country Highs Country Lows

Community

WunderPhotos

Upload Photos

1,927,256 photos uploaded!

WunderBlog® & News

Nearby

Air Quality

  Air Quality AQ Index Pollutant
Not available.

Snow Depth

Station Depth Elevation

Earthquake Activity

City Distance Mag. Time & Date
Minimum magnitude displayed is 2.5.

Coastal Water Temperatures

Place Temperature

Stations

Nearby Weather Stations

Station Location Temp. Windchill Dew Point Humidity Wind Precip. Elev Updated Type